PWSweather.com
Personal Weather Stations
Station Observations
KAZPHOEN90
RayThunderhill, Phoenix, AZ

RayThunderhillPhoenix, AZ

Lat: 33.312, Lon: -112.029

Elevation: 1260

Station Type: Davis Vantage VUE

Latest ConditionsUpdated 5:00:02 AM MST Friday, May 29, 2015
Currently Today's Max Today's Min Today's Average
Temperature 71.5°F21.9°C 84.3°F29.1°C 71.4°F21.9°C 78.8°F26.0°C
Dew Point 37.6°F3.1°C 37.6°F3.1°C 25.6°F-3.6°C 32.5°F0.3°C
Winds Calm Calm 1.5 mph SE2.4 kmh SE - 0.2 mph 0.3 kmh
Wind Gusts -- 3.0 mph4.8 kmh - -
Humidity 29% 29% 13% 19%
Pressure 29.76 in1007.8 mb 29.76 in1007.8 mb 29.73 in1006.8 mb -
Hour Temp Dew Point Humidity Winds Wind Gusts Pressure Precip Precip Rate Daily Precip Total
05:00 AM 71.5°F21.9°C 37.6°F3.1°C 29% Calm Calm -- 29.76 in1007.8 mb - 0.00 in0.0 mm 0.00 in0.0 mm
04:45 AM 71.4°F21.9°C 37.5°F3.1°C 29% Calm Calm -- 29.76 in1007.8 mb - 0.00 in0.0 mm 0.00 in0.0 mm
04:30 AM 72.8°F22.7°C 36.8°F2.7°C 27% Calm Calm -- 29.76 in1007.8 mb - 0.00 in0.0 mm 0.00 in0.0 mm
04:15 AM 74.1°F23.4°C 37.0°F2.8°C 26% Calm Calm -- 29.75 in1007.5 mb - 0.00 in0.0 mm 0.00 in0.0 mm
04:00 AM 76.4°F24.7°C 35.8°F2.1°C 23% Calm Calm -- 29.75 in1007.5 mb - 0.00 in0.0 mm 0.00 in0.0 mm
03:45 AM 80.3°F26.8°C 34.3°F1.3°C 19% 0.5 mph SW0.8 kmh SW 1.0 mph1.6 kmh 29.74 in1007.1 mb - 0.00 in0.0 mm 0.00 in0.0 mm
03:30 AM 81.1°F27.3°C 33.6°F0.9°C 18% 0.2 mph NW0.3 kmh NW 1.0 mph1.6 kmh 29.75 in1007.5 mb - 0.00 in0.0 mm 0.00 in0.0 mm
03:15 AM 75.0°F23.9°C 34.7°F1.5°C 23% Calm Calm 1.0 mph1.6 kmh 29.74 in1007.1 mb - 0.00 in0.0 mm 0.00 in0.0 mm
03:00 AM 75.5°F24.2°C 35.1°F1.7°C 23% Calm Calm -- 29.74 in1007.1 mb - 0.00 in0.0 mm 0.00 in0.0 mm
02:45 AM 76.4°F24.7°C 35.9°F2.2°C 23% 0.2 mph SSW0.3 kmh SSW 1.0 mph1.6 kmh 29.74 in1007.1 mb - 0.00 in0.0 mm 0.00 in0.0 mm
02:30 AM 78.1°F25.6°C 35.0°F1.7°C 21% Calm Calm -- 29.74 in1007.1 mb - 0.00 in0.0 mm 0.00 in0.0 mm
02:15 AM 83.5°F28.6°C 34.1°F1.2°C 17% 1.5 mph SE2.4 kmh SE 3.0 mph4.8 kmh 29.74 in1007.1 mb - 0.00 in0.0 mm 0.00 in0.0 mm
02:00 AM 84.3°F29.1°C 31.6°F-0.2°C 15% 0.6 mph WSW1.0 kmh WSW 2.0 mph3.2 kmh 29.74 in1007.1 mb - 0.00 in0.0 mm 0.00 in0.0 mm
01:45 AM 83.6°F28.7°C 32.6°F0.3°C 16% 0.2 mph WNW0.3 kmh WNW 1.0 mph1.6 kmh 29.74 in1007.1 mb - 0.00 in0.0 mm 0.00 in0.0 mm
01:30 AM 83.9°F28.8°C 31.3°F-0.4°C 15% 0.1 mph WNW0.2 kmh WNW 1.0 mph1.6 kmh 29.74 in1007.1 mb - 0.00 in0.0 mm 0.00 in0.0 mm
01:15 AM 83.2°F28.4°C 29.0°F-1.7°C 14% Calm Calm 1.0 mph1.6 kmh 29.74 in1007.1 mb - 0.00 in0.0 mm 0.00 in0.0 mm
01:00 AM 81.7°F27.6°C 26.0°F-3.3°C 13% 0.1 mph WSW0.2 kmh WSW -- 29.74 in1007.1 mb - 0.00 in0.0 mm 0.00 in0.0 mm
12:45 AM 79.5°F26.4°C 26.1°F-3.3°C 14% 0.2 mph W0.3 kmh W 1.0 mph1.6 kmh 29.73 in1006.8 mb - 0.00 in0.0 mm 0.00 in0.0 mm
12:30 AM 78.9°F26.1°C 25.6°F-3.6°C 14% Calm Calm -- 29.74 in1007.1 mb - 0.00 in0.0 mm 0.00 in0.0 mm
12:15 AM 80.5°F26.9°C 26.9°F-2.8°C 14% Calm Calm -- 29.74 in1007.1 mb - 0.00 in0.0 mm 0.00 in0.0 mm
12:00 AM 82.2°F27.9°C 26.4°F-3.1°C 13% Calm Calm -- 29.74 in1007.1 mb - 0.00 in0.0 mm 0.00 in0.0 mm